createdAt,value
2022-12-14T00:04:09.698Z,-13.40
2022-12-14T00:09:16.132Z,-13.90
2022-12-14T00:14:22.807Z,-14.10
2022-12-14T00:19:29.446Z,-13.80
2022-12-14T00:24:37.195Z,-13.40
2022-12-14T00:29:43.850Z,-13.10
2022-12-14T00:34:50.376Z,-13.20
2022-12-14T00:39:56.588Z,-13.10
2022-12-14T00:45:04.910Z,-13.00
2022-12-14T00:50:11.478Z,-13.00
2022-12-14T00:55:18.765Z,-13.00
2022-12-14T01:00:25.130Z,-13.00
2022-12-14T01:05:32.122Z,-12.60
2022-12-14T01:10:42.482Z,-12.50
2022-12-14T01:15:49.146Z,-12.40
2022-12-14T01:20:55.909Z,-12.20
2022-12-14T01:26:02.331Z,-12.10
2022-12-14T01:31:12.808Z,-12.00
2022-12-14T01:36:26.702Z,-11.90
2022-12-14T01:41:46.412Z,-12.30
2022-12-14T01:47:12.385Z,-12.50
2022-12-14T01:52:29.247Z,-12.30
2022-12-14T01:57:46.774Z,-12.00
2022-12-14T02:03:09.465Z,-11.80
2022-12-14T02:08:18.987Z,-11.70
2022-12-14T02:13:43.728Z,-11.70
2022-12-14T02:18:51.644Z,-11.80
2022-12-14T02:24:27.356Z,-11.90
2022-12-14T02:30:04.400Z,-12.00
2022-12-14T02:35:30.303Z,-11.50
2022-12-14T02:41:05.550Z,-12.10
2022-12-14T02:46:21.969Z,-12.20
2022-12-14T02:51:38.524Z,-11.80
2022-12-14T02:56:55.847Z,-11.80
2022-12-14T03:02:05.731Z,-12.00
2022-12-14T03:07:54.840Z,-12.00
2022-12-14T03:13:11.865Z,-11.90
2022-12-14T03:18:20.856Z,-12.00
2022-12-14T03:23:31.767Z,-11.50
2022-12-14T03:28:48.021Z,-11.60
2022-12-14T03:33:58.164Z,-11.40
2022-12-14T03:39:08.977Z,-11.20
2022-12-14T03:44:49.668Z,-11.10
2022-12-14T03:50:10.485Z,-11.20
2022-12-14T03:55:46.010Z,-11.40
2022-12-14T04:01:10.547Z,-11.10
2022-12-14T04:06:30.657Z,-11.30
2022-12-14T04:12:02.518Z,-11.20
2022-12-14T04:17:31.123Z,-11.40
2022-12-14T04:22:44.275Z,-11.40
2022-12-14T04:28:03.778Z,-11.00
2022-12-14T04:33:31.005Z,-11.00
2022-12-14T04:38:39.668Z,-11.20
2022-12-14T04:43:49.038Z,-11.00
2022-12-14T04:49:05.946Z,-10.80
2022-12-14T04:54:20.522Z,-10.90
2022-12-14T04:59:27.317Z,-10.70
2022-12-14T05:05:03.127Z,-10.70
2022-12-14T05:10:18.955Z,-10.80
2022-12-14T05:15:30.428Z,-10.70
2022-12-14T05:20:36.738Z,-10.50
2022-12-14T05:25:43.652Z,-10.20
2022-12-14T05:30:50.907Z,-10.30
2022-12-14T05:35:57.536Z,-10.30
2022-12-14T05:41:04.110Z,-10.10
2022-12-14T05:46:12.216Z,-10.10
2022-12-14T05:51:19.564Z,-10.10
2022-12-14T05:56:26.272Z,-9.90
2022-12-14T06:01:32.724Z,-9.80
2022-12-14T06:06:39.687Z,-9.70
2022-12-14T06:11:47.802Z,-9.80
2022-12-14T06:16:54.062Z,-10.00
2022-12-14T06:22:01.234Z,-9.90
2022-12-14T06:27:07.469Z,-9.80
2022-12-14T06:32:13.796Z,-9.70
2022-12-14T06:37:21.137Z,-9.70
2022-12-14T06:42:28.230Z,-9.40
2022-12-14T06:47:34.904Z,-9.40
2022-12-14T06:52:40.585Z,-9.40
2022-12-14T06:57:46.779Z,-9.50
2022-12-14T07:02:53.220Z,-9.50
2022-12-14T07:08:00.029Z,-9.60
2022-12-14T07:13:06.108Z,-9.60
2022-12-14T07:18:13.171Z,-9.60
2022-12-14T07:23:23.447Z,-9.40
2022-12-14T07:28:30.406Z,-9.20
2022-12-14T07:33:37.603Z,-8.90
2022-12-14T07:38:46.000Z,-9.00
2022-12-14T07:43:54.764Z,-8.80
2022-12-14T07:49:03.256Z,-8.50
2022-12-14T07:54:11.059Z,-8.20
2022-12-14T07:59:19.336Z,-7.80
2022-12-14T08:04:26.350Z,-7.50
2022-12-14T08:09:33.043Z,-7.30
2022-12-14T08:14:39.638Z,-7.30
2022-12-14T08:19:45.861Z,-6.30
2022-12-14T08:24:52.052Z,-5.80
2022-12-14T08:29:58.342Z,-5.40
2022-12-14T08:35:05.720Z,-5.50
2022-12-14T08:40:13.199Z,-5.80
2022-12-14T08:45:19.588Z,-6.10
2022-12-14T08:50:27.107Z,-6.60
2022-12-14T08:55:38.297Z,-5.70
2022-12-14T09:00:42.064Z,-5.20
2022-12-14T09:05:48.295Z,-5.10
2022-12-14T09:10:54.730Z,-4.90
2022-12-14T09:16:07.804Z,-4.60
2022-12-14T09:21:15.029Z,-4.10
2022-12-14T09:26:24.132Z,-3.80
2022-12-14T09:31:30.768Z,-3.60
2022-12-14T09:36:38.360Z,-4.30
2022-12-14T09:42:01.472Z,-3.80
2022-12-14T09:47:19.523Z,-3.80
2022-12-14T09:52:45.160Z,-3.70
2022-12-14T09:57:56.762Z,-3.90
2022-12-14T10:03:24.544Z,-2.80
2022-12-14T10:08:35.712Z,-2.40
2022-12-14T10:14:19.894Z,-3.00
2022-12-14T10:20:00.744Z,-2.10
2022-12-14T10:25:15.522Z,-1.90
2022-12-14T10:30:23.528Z,-1.50
2022-12-14T10:35:55.070Z,-1.60
2022-12-14T10:41:22.708Z,-1.60
2022-12-14T10:46:52.752Z,-1.50
2022-12-14T10:52:19.049Z,-1.80
2022-12-14T10:57:28.576Z,-1.90
2022-12-14T11:02:40.445Z,-1.50
2022-12-14T11:07:48.586Z,-1.90
2022-12-14T11:13:16.810Z,-1.90
2022-12-14T11:18:34.296Z,-2.10
2022-12-14T11:23:45.253Z,-2.00
2022-12-14T11:28:58.283Z,-2.00
2022-12-14T11:34:10.369Z,-1.60
2022-12-14T11:39:21.933Z,-1.20
2022-12-14T11:44:31.335Z,-1.10
2022-12-14T11:49:45.210Z,-1.70
2022-12-14T11:55:02.348Z,-2.00
2022-12-14T12:00:28.477Z,-1.80
2022-12-14T12:05:40.129Z,-1.80
2022-12-14T12:10:50.578Z,-1.70
2022-12-14T12:16:13.663Z,-2.10
2022-12-14T12:21:28.225Z,-2.00
2022-12-14T12:26:53.739Z,-1.90
2022-12-14T12:32:10.797Z,-1.60
2022-12-14T12:37:36.630Z,-1.70
2022-12-14T12:43:00.295Z,-1.70
2022-12-14T12:48:18.171Z,-1.80
2022-12-14T12:53:46.434Z,-1.80
2022-12-14T12:58:54.396Z,-1.90
2022-12-14T13:04:04.601Z,-1.90
2022-12-14T13:09:38.896Z,-2.00
2022-12-14T13:14:50.050Z,-2.00
2022-12-14T13:20:00.080Z,-2.30
2022-12-14T13:25:17.883Z,-2.30
2022-12-14T13:30:46.943Z,-2.30
2022-12-14T13:36:21.781Z,-2.00
2022-12-14T13:42:05.899Z,-2.20
2022-12-14T13:47:20.263Z,-2.20
2022-12-14T13:52:40.166Z,-2.40
2022-12-14T13:57:46.586Z,-2.30
2022-12-14T14:02:54.975Z,-2.40
2022-12-14T14:08:29.442Z,-2.50
2022-12-14T14:13:35.635Z,-2.40
2022-12-14T14:18:55.882Z,-2.50
2022-12-14T14:24:16.976Z,-2.50
2022-12-14T14:29:35.143Z,-2.60
2022-12-14T14:34:49.304Z,-2.60
2022-12-14T14:40:26.161Z,-2.60
2022-12-14T14:45:40.950Z,-2.50
2022-12-14T14:50:49.735Z,-2.50
2022-12-14T14:56:03.855Z,-2.70
2022-12-14T15:01:22.892Z,-2.70
2022-12-14T15:06:41.782Z,-2.70
2022-12-14T15:11:52.858Z,-2.80
2022-12-14T15:17:02.283Z,-2.70
2022-12-14T15:22:16.655Z,-2.90
2022-12-14T15:27:35.750Z,-3.10
2022-12-14T15:32:48.163Z,-3.00
2022-12-14T15:38:00.414Z,-3.00
2022-12-14T15:43:19.842Z,-2.90
2022-12-14T15:48:33.609Z,-2.90
2022-12-14T15:53:49.944Z,-2.90
2022-12-14T15:59:00.257Z,-2.90
2022-12-14T16:04:15.467Z,-2.90
2022-12-14T16:09:29.449Z,-2.80
2022-12-14T16:14:46.513Z,-2.80
2022-12-14T16:20:01.049Z,-2.80
2022-12-14T16:25:20.276Z,-2.80
2022-12-14T16:30:34.160Z,-2.80
2022-12-14T16:35:40.697Z,-2.90
2022-12-14T16:41:00.318Z,-2.90
2022-12-14T16:46:14.780Z,-2.80
2022-12-14T16:51:58.303Z,-2.80
2022-12-14T16:56:45.692Z,-2.80
2022-12-14T17:01:53.590Z,-2.90
2022-12-14T17:07:02.280Z,-2.90
2022-12-14T17:12:15.553Z,-2.90
2022-12-14T17:17:33.310Z,-2.90
2022-12-14T17:22:42.520Z,-2.90
2022-12-14T17:27:49.930Z,-2.90
2022-12-14T17:32:57.940Z,-2.90
2022-12-14T17:38:07.098Z,-2.80
2022-12-14T17:43:17.142Z,-2.80
2022-12-14T17:48:23.520Z,-2.90
2022-12-14T17:53:33.607Z,-3.10
2022-12-14T17:58:45.094Z,-3.20
2022-12-14T18:03:52.450Z,-3.10
2022-12-14T18:08:59.789Z,-3.10
2022-12-14T18:14:06.894Z,-3.10
2022-12-14T18:19:16.491Z,-3.00
2022-12-14T18:24:26.208Z,-3.10
2022-12-14T18:29:34.477Z,-3.00
2022-12-14T18:34:43.584Z,-3.00
2022-12-14T18:39:50.728Z,-3.10
2022-12-14T18:45:00.329Z,-3.00
2022-12-14T18:50:07.999Z,-3.10
2022-12-14T18:55:18.753Z,-3.10
2022-12-14T19:00:29.752Z,-3.20
2022-12-14T19:05:37.431Z,-3.30
2022-12-14T19:10:48.559Z,-3.30
2022-12-14T19:15:55.625Z,-3.20
2022-12-14T19:21:02.027Z,-3.30
2022-12-14T19:26:09.604Z,-3.20
2022-12-14T19:31:16.332Z,-3.30
2022-12-14T19:36:23.169Z,-3.30
2022-12-14T19:41:30.157Z,-3.30
2022-12-14T19:46:36.775Z,-3.30
2022-12-14T19:51:43.732Z,-3.30
2022-12-14T19:56:52.822Z,-3.40
2022-12-14T20:02:03.739Z,-3.50
2022-12-14T20:07:15.107Z,-3.40
2022-12-14T20:12:22.759Z,-3.40
2022-12-14T20:17:30.868Z,-3.50
2022-12-14T20:22:37.658Z,-3.60
2022-12-14T20:27:46.653Z,-3.60
2022-12-14T20:32:53.504Z,-3.60
2022-12-14T20:38:01.261Z,-3.70
2022-12-14T20:43:08.369Z,-3.70
2022-12-14T20:48:16.281Z,-3.70
2022-12-14T20:53:23.656Z,-3.80
2022-12-14T20:58:29.925Z,-3.80
2022-12-14T21:03:37.330Z,-3.80
2022-12-14T21:09:02.778Z,-3.70
2022-12-14T21:14:10.270Z,-3.80
2022-12-14T21:19:19.543Z,-3.80
2022-12-14T21:29:36.133Z,-3.70
2022-12-14T21:34:42.519Z,-3.90
2022-12-14T21:39:54.149Z,-3.90
2022-12-14T21:44:58.499Z,-3.90
2022-12-14T21:50:06.334Z,-3.90
2022-12-14T21:55:14.400Z,-3.90
2022-12-14T22:00:21.714Z,-4.20
2022-12-14T22:05:28.340Z,-4.10
2022-12-14T22:10:35.704Z,-4.00
2022-12-14T22:15:41.922Z,-3.80
2022-12-14T22:20:48.058Z,-3.90
2022-12-14T22:25:54.879Z,-3.90
2022-12-14T22:31:05.780Z,-3.80
2022-12-14T22:36:13.381Z,-3.80
2022-12-14T22:41:21.828Z,-3.80
2022-12-14T22:46:29.461Z,-4.10
2022-12-14T22:51:36.244Z,-4.30
2022-12-14T22:56:47.490Z,-4.60
2022-12-14T23:01:54.928Z,-4.70
2022-12-14T23:07:01.460Z,-4.90
2022-12-14T23:12:24.908Z,-5.00
2022-12-14T23:17:49.637Z,-5.10
2022-12-14T23:23:14.276Z,-5.20
2022-12-14T23:28:39.256Z,-5.30
2022-12-14T23:34:03.254Z,-6.00
2022-12-14T23:39:27.366Z,-5.90
2022-12-14T23:44:52.148Z,-5.90
2022-12-14T23:50:16.361Z,-5.60
2022-12-14T23:55:40.745Z,-6.40
